createdAt,value
2019-04-07T00:00:33.200Z,19.32
2019-04-07T00:03:05.213Z,10.78
2019-04-07T00:05:36.815Z,21.90
2019-04-07T00:08:08.410Z,22.27
2019-04-07T00:10:40.175Z,22.30
2019-04-07T00:13:12.364Z,22.60
2019-04-07T00:15:44.009Z,22.77
2019-04-07T00:18:15.614Z,15.30
2019-04-07T00:20:47.364Z,17.30
2019-04-07T00:23:18.913Z,23.87
2019-04-07T00:25:50.943Z,18.92
2019-04-07T00:28:22.611Z,16.48
2019-04-07T00:30:54.168Z,19.40
2019-04-07T00:33:25.807Z,20.20
2019-04-07T00:35:59.247Z,26.17
2019-04-07T00:38:30.824Z,21.75
2019-04-07T00:41:02.500Z,18.00
2019-04-07T00:43:35.195Z,22.80
2019-04-07T00:46:06.964Z,26.57
2019-04-07T00:48:38.775Z,25.00
2019-04-07T00:51:11.094Z,15.00
2019-04-07T00:53:42.860Z,24.55
2019-04-07T00:56:14.644Z,23.05
2019-04-07T00:58:46.635Z,18.27
2019-04-07T01:01:20.688Z,23.10
2019-04-07T01:03:52.431Z,21.27
2019-04-07T01:06:24.200Z,23.55
2019-04-07T01:08:55.886Z,23.12
2019-04-07T01:11:27.600Z,28.35
2019-04-07T01:13:59.289Z,24.47
2019-04-07T01:16:30.917Z,25.82
2019-04-07T01:19:03.408Z,25.45
2019-04-07T01:21:35.657Z,23.42
2019-04-07T01:24:07.487Z,20.55
2019-04-07T01:26:39.359Z,20.88
2019-04-07T01:29:10.984Z,11.25
2019-04-07T01:31:43.091Z,24.05
2019-04-07T01:34:15.048Z,26.80
2019-04-07T01:36:46.708Z,26.15
2019-04-07T01:39:18.363Z,25.40
2019-04-07T01:41:51.552Z,25.97
2019-04-07T01:44:30.935Z,17.30
2019-04-07T01:47:20.182Z,22.82
2019-04-07T01:49:59.765Z,11.63
2019-04-07T01:52:39.907Z,25.77
2019-04-07T01:55:13.117Z,27.25
2019-04-07T01:57:58.463Z,22.45
2019-04-07T02:00:48.413Z,25.43
2019-04-07T02:03:21.855Z,18.95
2019-04-07T02:06:03.653Z,24.20
2019-04-07T02:08:55.740Z,26.02
2019-04-07T02:11:41.281Z,23.80
2019-04-07T02:14:17.651Z,25.10
2019-04-07T02:16:52.205Z,24.20
2019-04-07T02:19:27.072Z,26.00
2019-04-07T02:22:15.854Z,18.87
2019-04-07T02:24:49.877Z,25.70
2019-04-07T02:27:29.414Z,18.27
2019-04-07T02:30:13.093Z,27.37
2019-04-07T02:33:02.503Z,21.75
2019-04-07T02:35:39.031Z,25.08
2019-04-07T02:38:15.837Z,25.43
2019-04-07T02:40:53.937Z,21.87
2019-04-07T02:43:27.404Z,25.90
2019-04-07T02:46:04.236Z,19.10
2019-04-07T02:48:37.653Z,22.02
2019-04-07T02:51:10.846Z,16.97
2019-04-07T02:53:53.220Z,22.02
2019-04-07T02:56:29.449Z,22.75
2019-04-07T02:59:12.044Z,23.47
2019-04-07T03:01:46.778Z,21.80
2019-04-07T03:04:37.084Z,13.08
2019-04-07T03:07:13.618Z,22.95
2019-04-07T03:09:58.820Z,19.80
2019-04-07T03:12:41.409Z,26.62
2019-04-07T03:15:24.902Z,24.12
2019-04-07T03:18:12.609Z,24.72
2019-04-07T03:20:49.532Z,22.52
2019-04-07T03:23:35.120Z,22.82
2019-04-07T03:26:11.432Z,24.60
2019-04-07T03:28:51.340Z,23.18
2019-04-07T03:31:29.166Z,23.45
2019-04-07T03:34:09.180Z,16.23
2019-04-07T03:37:12.685Z,15.75
2019-04-07T03:39:24.946Z,16.25
2019-04-07T03:42:03.948Z,17.02
2019-04-07T03:44:53.204Z,23.35
2019-04-07T03:47:26.539Z,23.80
2019-04-07T03:50:08.948Z,21.87
2019-04-07T03:52:58.413Z,24.37
2019-04-07T03:55:35.198Z,24.92
2019-04-07T03:58:14.793Z,26.90
2019-04-07T04:01:11.670Z,25.10
2019-04-07T04:04:00.707Z,26.95
2019-04-07T04:06:50.232Z,25.80
2019-04-07T04:09:26.769Z,23.27
2019-04-07T04:12:03.157Z,25.92
2019-04-07T04:14:51.300Z,23.98
2019-04-07T04:17:25.014Z,25.68
2019-04-07T04:19:57.368Z,22.75
2019-04-07T04:22:30.692Z,23.35
2019-04-07T04:25:02.909Z,24.57
2019-04-07T04:27:35.279Z,25.43
2019-04-07T04:30:12.100Z,25.20
2019-04-07T04:32:44.200Z,24.47
2019-04-07T04:35:16.935Z,24.57
2019-04-07T04:37:52.375Z,24.67
2019-04-07T04:40:22.418Z,23.00
2019-04-07T04:42:55.042Z,24.00
2019-04-07T04:45:27.568Z,23.05
2019-04-07T04:48:00.196Z,23.30
2019-04-07T04:50:32.021Z,24.20
2019-04-07T04:53:04.085Z,23.83
2019-04-07T04:55:35.800Z,24.12
2019-04-07T04:58:08.712Z,24.70
2019-04-07T05:00:41.452Z,25.08
2019-04-07T05:03:13.759Z,22.75
2019-04-07T05:05:45.719Z,23.92
2019-04-07T05:08:17.657Z,24.95
2019-04-07T05:10:49.485Z,25.72
2019-04-07T05:13:21.377Z,25.50
2019-04-07T05:15:53.722Z,21.77
2019-04-07T05:18:25.623Z,21.20
2019-04-07T05:20:58.698Z,22.30
2019-04-07T05:23:30.704Z,18.35
2019-04-07T05:26:03.823Z,20.88
2019-04-07T05:28:38.027Z,20.20
2019-04-07T05:31:09.855Z,19.23
2019-04-07T05:33:42.016Z,20.17
2019-04-07T05:36:13.730Z,19.85
2019-04-07T05:38:45.502Z,20.23
2019-04-07T05:41:17.203Z,19.05
2019-04-07T05:43:49.136Z,19.62
2019-04-07T05:46:21.814Z,18.17
2019-04-07T05:48:53.478Z,18.42
2019-04-07T05:51:25.059Z,18.57
2019-04-07T05:53:57.074Z,17.98
2019-04-07T05:56:29.494Z,16.60
2019-04-07T05:59:01.775Z,17.77
2019-04-07T06:01:33.614Z,12.23
2019-04-07T06:04:05.645Z,16.50
2019-04-07T06:06:39.874Z,18.00
2019-04-07T06:09:11.750Z,17.30
2019-04-07T06:11:43.489Z,15.32
2019-04-07T06:14:16.652Z,17.07
2019-04-07T06:16:51.885Z,16.02
2019-04-07T06:19:21.678Z,15.88
2019-04-07T06:21:55.650Z,17.62
2019-04-07T06:24:31.616Z,17.85
2019-04-07T06:27:00.916Z,18.37
2019-04-07T06:29:33.443Z,16.00
2019-04-07T06:32:07.726Z,16.73
2019-04-07T06:34:41.099Z,16.02
2019-04-07T06:37:12.257Z,15.95
2019-04-07T06:39:44.100Z,14.43
2019-04-07T06:42:15.856Z,14.70
2019-04-07T06:44:50.133Z,12.35
2019-04-07T06:47:30.802Z,14.70
2019-04-07T06:50:21.190Z,11.95
2019-04-07T06:53:03.307Z,12.35
2019-04-07T06:55:58.448Z,11.85
2019-04-07T06:58:29.920Z,13.55
2019-04-07T07:01:09.927Z,13.03
2019-04-07T07:03:43.311Z,14.58
2019-04-07T07:06:19.641Z,12.85
2019-04-07T07:08:55.490Z,12.05
2019-04-07T07:11:45.005Z,12.85
2019-04-07T07:14:42.318Z,11.57
2019-04-07T07:17:27.975Z,11.93
2019-04-07T07:20:03.622Z,14.13
2019-04-07T07:22:36.129Z,11.95
2019-04-07T07:25:10.314Z,11.93
2019-04-07T07:27:42.742Z,14.30
2019-04-07T07:30:17.458Z,13.93
2019-04-07T07:32:48.558Z,15.72
2019-04-07T07:35:20.561Z,21.17
2019-04-07T07:37:53.713Z,17.57
2019-04-07T07:40:26.493Z,15.48
2019-04-07T07:42:59.105Z,12.55
2019-04-07T07:48:06.401Z,11.73
2019-04-07T07:50:39.552Z,9.88
2019-04-07T07:53:11.441Z,8.73
2019-04-07T07:55:43.121Z,9.98
2019-04-07T07:58:15.697Z,9.95
2019-04-07T08:00:47.594Z,10.80
2019-04-07T08:03:22.662Z,10.72
2019-04-07T08:05:52.431Z,10.65
2019-04-07T08:08:25.374Z,11.55
2019-04-07T08:11:00.676Z,9.63
2019-04-07T08:13:32.481Z,10.97
2019-04-07T08:16:06.246Z,10.85
2019-04-07T08:18:40.681Z,9.73
2019-04-07T08:21:12.661Z,10.85
2019-04-07T08:23:45.424Z,11.15
2019-04-07T08:26:18.345Z,10.38
2019-04-07T08:28:50.379Z,10.23
2019-04-07T08:31:22.939Z,11.45
2019-04-07T08:33:55.963Z,10.50
2019-04-07T08:36:27.728Z,11.70
2019-04-07T08:39:00.991Z,11.15
2019-04-07T08:41:34.331Z,10.70
2019-04-07T08:44:07.224Z,7.55
2019-04-07T08:46:43.130Z,11.78
2019-04-07T08:49:14.985Z,11.33
2019-04-07T08:51:46.689Z,10.50
2019-04-07T08:54:18.526Z,11.90
2019-04-07T08:56:50.260Z,10.90
2019-04-07T08:59:21.928Z,11.33
2019-04-07T09:01:54.796Z,10.55
2019-04-07T09:07:00.689Z,7.78
2019-04-07T09:09:35.969Z,10.93
2019-04-07T09:12:07.074Z,11.00
2019-04-07T09:14:41.944Z,11.12
2019-04-07T09:17:30.675Z,10.78
2019-04-07T09:20:06.102Z,10.85
2019-04-07T09:22:36.382Z,10.63
2019-04-07T09:25:26.147Z,9.90
2019-04-07T09:27:59.348Z,10.88
2019-04-07T09:30:32.633Z,9.25
2019-04-07T09:33:15.985Z,11.22
2019-04-07T09:35:59.416Z,10.30
2019-04-07T09:38:33.394Z,9.90
2019-04-07T09:41:27.302Z,11.70
2019-04-07T09:44:05.275Z,10.65
2019-04-07T09:46:57.478Z,10.80
2019-04-07T09:49:31.009Z,9.95
2019-04-07T09:52:13.208Z,10.80
2019-04-07T09:54:46.085Z,10.38
2019-04-07T09:57:20.052Z,10.32
2019-04-07T10:00:10.244Z,11.08
2019-04-07T10:02:49.246Z,10.85
2019-04-07T10:05:40.440Z,10.65
2019-04-07T10:08:18.248Z,12.18
2019-04-07T10:11:07.577Z,11.48
2019-04-07T10:13:57.717Z,10.35
2019-04-07T10:16:47.330Z,11.63
2019-04-07T10:19:21.104Z,10.32
2019-04-07T10:21:57.262Z,12.07
2019-04-07T10:24:37.068Z,9.30
2019-04-07T10:27:27.453Z,10.58
2019-04-07T10:30:03.602Z,16.67
2019-04-07T10:32:36.841Z,18.17
2019-04-07T10:35:19.181Z,12.88
2019-04-07T10:37:55.073Z,11.12
2019-04-07T10:40:37.949Z,14.60
2019-04-07T10:43:28.903Z,11.30
2019-04-07T10:46:18.678Z,9.63
2019-04-07T10:49:07.912Z,10.30
2019-04-07T10:51:44.280Z,10.38
2019-04-07T10:54:17.447Z,10.40
2019-04-07T10:56:55.219Z,10.48
2019-04-07T10:59:32.199Z,10.78
2019-04-07T11:02:22.755Z,12.80
2019-04-07T11:05:13.023Z,14.43
2019-04-07T11:08:09.191Z,10.88
2019-04-07T11:10:58.531Z,12.15
2019-04-07T11:13:43.945Z,11.45
2019-04-07T11:16:36.604Z,11.85
2019-04-07T11:19:21.441Z,12.05
2019-04-07T11:22:00.897Z,14.33
2019-04-07T11:24:35.142Z,11.65
2019-04-07T11:27:14.809Z,11.12
2019-04-07T11:29:57.431Z,11.03
2019-04-07T11:32:53.313Z,11.08
2019-04-07T11:35:30.775Z,11.08
2019-04-07T11:38:22.158Z,10.95
2019-04-07T11:41:14.103Z,10.30
2019-04-07T11:43:54.546Z,10.40
2019-04-07T11:46:30.854Z,11.18
2019-04-07T11:49:29.012Z,10.75
2019-04-07T11:52:10.051Z,10.75
2019-04-07T11:54:52.138Z,9.43
2019-04-07T11:57:36.311Z,11.33
2019-04-07T12:00:12.360Z,13.55
2019-04-07T12:02:49.355Z,11.63
2019-04-07T12:05:34.363Z,12.00
2019-04-07T12:08:10.528Z,11.08
2019-04-07T12:10:58.432Z,12.65
2019-04-07T12:13:31.308Z,11.95
2019-04-07T12:16:17.670Z,12.45
2019-04-07T12:21:28.189Z,12.65
2019-04-07T12:24:23.932Z,10.60
2019-04-07T12:27:13.917Z,11.68
2019-04-07T12:29:58.248Z,11.38
2019-04-07T12:32:38.569Z,11.33
2019-04-07T12:35:27.679Z,12.07
2019-04-07T12:38:17.637Z,11.97
2019-04-07T12:41:15.211Z,12.28
2019-04-07T12:44:01.673Z,11.38
2019-04-07T12:46:46.764Z,10.65
2019-04-07T12:49:23.159Z,11.37
2019-04-07T12:52:15.197Z,10.45
2019-04-07T12:54:48.599Z,11.12
2019-04-07T15:15:09.986Z,10.70
2019-04-07T15:20:13.708Z,11.35
2019-04-07T15:22:46.135Z,10.72
2019-04-07T15:25:18.351Z,14.25
2019-04-07T15:27:50.037Z,11.63
2019-04-07T15:30:22.274Z,10.70
2019-04-07T15:32:57.810Z,11.53
2019-04-07T15:35:27.610Z,10.63
2019-04-07T15:38:00.149Z,11.20
2019-04-07T15:40:35.014Z,14.07
2019-04-07T15:43:07.667Z,15.32
2019-04-07T15:45:39.665Z,13.48
2019-04-07T15:48:12.468Z,13.28
2019-04-07T15:50:44.164Z,12.47
2019-04-07T15:53:16.635Z,11.55
2019-04-07T15:55:59.082Z,11.00
2019-04-07T15:58:22.523Z,10.60
2019-04-07T16:00:55.068Z,11.85
2019-04-07T16:03:26.657Z,12.40
2019-04-07T16:06:02.468Z,14.15
2019-04-07T16:08:34.893Z,14.85
2019-04-07T16:11:08.049Z,15.20
2019-04-07T16:13:40.204Z,15.03
2019-04-07T16:16:14.532Z,16.87
2019-04-07T16:18:48.486Z,22.40
2019-04-07T16:21:20.721Z,24.85
2019-04-07T16:23:53.996Z,26.93
2019-04-07T16:26:26.103Z,16.55
2019-04-07T16:28:57.795Z,14.60
2019-04-07T16:31:30.046Z,16.32
2019-04-07T16:34:05.728Z,18.07
2019-04-07T16:36:35.227Z,18.85
2019-04-07T16:39:09.585Z,19.45
2019-04-07T16:41:44.204Z,20.45
2019-04-07T16:44:14.646Z,18.85
2019-04-07T16:46:46.219Z,19.60
2019-04-07T16:49:19.006Z,18.48
2019-04-07T16:51:51.566Z,19.27
2019-04-07T16:54:23.471Z,21.17
2019-04-07T16:56:57.535Z,24.23
2019-04-07T16:59:29.364Z,26.95
2019-04-07T17:02:00.926Z,22.17
2019-04-07T17:04:34.971Z,19.17
2019-04-07T17:07:12.663Z,18.98
2019-04-07T17:09:42.802Z,18.10
2019-04-07T17:12:15.013Z,19.15
2019-04-07T17:14:47.095Z,17.32
2019-04-07T17:17:21.933Z,14.45
2019-04-07T17:19:57.123Z,15.68
2019-04-07T17:22:27.096Z,15.10
2019-04-07T17:25:02.061Z,13.62
2019-04-07T17:27:32.622Z,17.10
2019-04-07T17:30:06.933Z,17.17
2019-04-07T17:32:39.194Z,16.35
2019-04-07T17:35:15.206Z,15.70
2019-04-07T17:37:47.334Z,17.32
2019-04-07T17:40:22.671Z,18.65
2019-04-07T17:42:56.728Z,17.98
2019-04-07T17:45:40.757Z,18.48
2019-04-07T17:48:37.412Z,18.27
2019-04-07T17:51:11.480Z,18.87
2019-04-07T17:54:02.629Z,18.67
2019-04-07T17:56:52.538Z,18.85
2019-04-07T17:59:38.941Z,20.23
2019-04-07T18:02:12.465Z,20.20
2019-04-07T18:05:02.487Z,21.30
2019-04-07T18:07:37.891Z,22.05
2019-04-07T18:10:22.649Z,21.17
2019-04-07T18:12:57.713Z,21.93
2019-04-07T18:15:38.323Z,20.10
2019-04-07T18:18:18.803Z,22.40
2019-04-07T18:21:06.083Z,20.85
2019-04-07T18:23:39.820Z,21.15
2019-04-07T18:26:29.726Z,21.68
2019-04-07T18:29:04.336Z,21.10
2019-04-07T18:31:40.130Z,21.85
2019-04-07T18:34:33.338Z,23.07
2019-04-07T18:37:24.758Z,22.13
2019-04-07T18:40:13.270Z,22.37
2019-04-07T18:42:53.540Z,21.68
2019-04-07T18:45:32.806Z,21.00
2019-04-07T18:48:09.272Z,23.50
2019-04-07T18:51:00.796Z,23.45
2019-04-07T18:53:41.797Z,22.98
2019-04-07T18:56:32.579Z,22.25
2019-04-07T18:59:21.453Z,23.95
2019-04-07T19:02:11.086Z,24.50
2019-04-07T19:05:00.230Z,24.67
2019-04-07T19:07:37.890Z,24.63
2019-04-07T19:10:24.176Z,23.55
2019-04-07T19:13:05.715Z,24.63
2019-04-07T19:15:40.004Z,25.32
2019-04-07T19:18:15.235Z,24.43
2019-04-07T19:20:55.671Z,24.23
2019-04-07T19:24:08.727Z,24.27
2019-04-07T19:26:54.602Z,23.45
2019-04-07T19:29:46.456Z,21.17
2019-04-07T19:32:25.371Z,21.57
2019-04-07T19:35:16.851Z,19.45
2019-04-07T19:38:06.853Z,19.25
2019-04-07T19:41:00.229Z,19.05
2019-04-07T19:43:50.016Z,19.05
2019-04-07T19:46:33.381Z,21.30
2019-04-07T19:49:14.963Z,21.30
2019-04-07T19:52:05.816Z,20.70
2019-04-07T19:54:37.841Z,20.68
2019-04-07T19:57:11.259Z,20.70
2019-04-07T19:59:47.235Z,19.65
2019-04-07T20:02:24.097Z,20.02
2019-04-07T20:05:10.560Z,21.90
2019-04-07T20:08:02.926Z,20.48
2019-04-07T20:10:54.559Z,21.00
2019-04-07T20:13:40.885Z,19.85
2019-04-07T20:19:08.824Z,20.00
2019-04-07T20:21:43.560Z,19.62
2019-04-07T20:24:23.901Z,19.17
2019-04-07T20:27:00.869Z,19.27
2019-04-07T20:29:43.791Z,19.27
2019-04-07T20:32:18.643Z,19.45
2019-04-07T20:34:54.868Z,18.23
2019-04-07T20:37:37.976Z,18.87
2019-04-07T20:40:11.501Z,19.48
2019-04-07T20:42:50.642Z,19.50
2019-04-07T20:45:28.956Z,19.70
2019-04-07T20:48:21.295Z,20.40
2019-04-07T20:50:58.339Z,19.45
2019-04-07T20:53:40.912Z,20.12
2019-04-07T20:56:25.019Z,20.40
2019-04-07T20:59:13.956Z,21.10
2019-04-07T21:02:07.508Z,20.95
2019-04-07T21:04:42.251Z,20.85
2019-04-07T21:07:16.411Z,19.80
2019-04-07T21:09:53.541Z,19.98
2019-04-07T21:12:31.070Z,19.52
2019-04-07T21:15:18.180Z,18.73
2019-04-07T21:17:40.982Z,19.87
2019-04-07T21:20:30.625Z,19.07
2019-04-07T21:23:07.142Z,18.05
2019-04-07T21:25:57.199Z,19.80
2019-04-07T21:28:40.721Z,20.02
2019-04-07T21:31:32.120Z,19.98
2019-04-07T21:34:14.367Z,18.70
2019-04-07T21:36:48.384Z,19.62
2019-04-07T21:39:39.929Z,18.10
2019-04-07T21:42:30.780Z,19.07
2019-04-07T21:45:29.378Z,19.23
2019-04-07T21:48:00.293Z,20.48
2019-04-07T21:50:42.566Z,21.27
2019-04-07T21:53:19.644Z,21.05
2019-04-07T21:56:01.814Z,21.97
2019-04-07T21:58:45.441Z,20.77
2019-04-07T22:01:21.533Z,21.82
2019-04-07T22:06:29.483Z,21.37
2019-04-07T22:09:19.174Z,21.07
2019-04-07T22:11:51.549Z,23.27
2019-04-07T22:14:24.128Z,22.95
2019-04-07T22:16:55.749Z,24.07
2019-04-07T22:19:28.596Z,22.42
2019-04-07T22:22:00.421Z,23.90
2019-04-07T22:24:33.957Z,25.30
2019-04-07T22:27:05.659Z,24.20
2019-04-07T22:29:37.597Z,22.98
2019-04-07T22:32:10.296Z,23.75
2019-04-07T22:34:41.948Z,23.73
2019-04-07T22:37:15.577Z,23.22
2019-04-07T22:39:47.060Z,23.57
2019-04-07T22:42:19.254Z,21.87
2019-04-07T22:44:53.750Z,23.20
2019-04-07T22:47:24.323Z,23.10
2019-04-07T22:49:56.885Z,20.70
2019-04-07T22:52:30.113Z,23.15
2019-04-07T22:55:04.770Z,22.40
2019-04-07T22:57:35.508Z,22.85
2019-04-07T23:00:12.863Z,22.82
2019-04-07T23:02:46.570Z,21.97
2019-04-07T23:05:19.143Z,22.27
2019-04-07T23:07:50.851Z,22.10
2019-04-07T23:10:23.571Z,22.87
2019-04-07T23:12:55.323Z,22.93
2019-04-07T23:15:39.578Z,20.95
2019-04-07T23:18:01.452Z,21.93
2019-04-07T23:20:33.041Z,21.20
2019-04-07T23:23:04.770Z,22.45
2019-04-07T23:25:38.488Z,22.45
2019-04-07T23:28:10.346Z,22.10
2019-04-07T23:30:42.793Z,21.95
2019-04-07T23:33:14.708Z,21.00
2019-04-07T23:35:46.862Z,20.02
2019-04-07T23:38:19.538Z,20.57
2019-04-07T23:40:52.437Z,20.23
2019-04-07T23:43:24.933Z,20.72
2019-04-07T23:45:56.826Z,19.98
2019-04-07T23:48:28.496Z,19.55
2019-04-07T23:51:00.040Z,20.48
2019-04-07T23:54:10.760Z,19.52
2019-04-07T23:56:43.880Z,19.82
2019-04-07T23:59:16.635Z,20.50
